Time;durP1;ratioP1;P1;durP2;ratioP2;P2;SDS_P1;SDS_P2;PMS_P1;PMS_P2;Temp;Humidity;BMP_temperature;BMP_pressure;BME280_temperature;BME280_humidity;BME280_pressure;Samples;Min_cycle;Max_cycle;Signal;HPM_P1;HPM_P2
2021/03/03 00:01:59;;;;;;;28.65;19.48;;;;;;;;;;5115176;28;20280;-63
2021/03/03 00:04:26;;;;;;;33.42;19.20;;;;;;;;;;5115229;28;20255;-63
2021/03/03 00:06:52;;;;;;;25.77;18.48;;;;;;;;;;5114532;28;20758;-63
2021/03/03 00:09:19;;;;;;;26.70;18.83;;;;;;;;;;5114817;28;20558;-63
2021/03/03 00:11:46;;;;;;;28.77;19.80;;;;;;;;;;5114796;28;20288;-63
2021/03/03 00:14:12;;;;;;;27.38;18.95;;;;;;;;;;5114711;28;20285;-63
2021/03/03 00:16:39;;;;;;;25.13;19.10;;;;;;;;;;5114287;28;20281;-63
2021/03/03 00:19:07;;;;;;;27.95;20.08;;;;;;;;;;5114752;28;20560;-63
2021/03/03 00:21:34;;;;;;;25.98;20.60;;;;;;;;;;5114560;28;20225;-63
2021/03/03 00:24:00;;;;;;;24.95;18.25;;;;;;;;;;5114501;28;20284;-63
2021/03/03 00:26:28;;;;;;;34.28;19.52;;;;;;;;;;5114062;28;20217;-62
2021/03/03 00:28:54;;;;;;;28.15;20.25;;;;;;;;;;5114703;28;20600;-63
2021/03/03 00:31:21;;;;;;;29.15;17.50;;;;;;;;;;5114321;28;20189;-62
2021/03/03 00:33:48;;;;;;;22.27;17.42;;;;;;;;;;5114508;28;20285;-63
2021/03/03 00:36:15;;;;;;;26.63;19.58;;;;;;;;;;5114332;28;20281;-62
2021/03/03 00:38:42;;;;;;;26.02;19.15;;;;;;;;;;5115207;28;20198;-63
2021/03/03 00:41:09;;;;;;;25.27;17.40;;;;;;;;;;5113920;28;20658;-64
2021/03/03 00:43:36;;;;;;;24.95;18.20;;;;;;;;;;5114199;28;20193;-64
2021/03/03 00:46:03;;;;;;;26.85;18.80;;;;;;;;;;5114119;28;20228;-63
2021/03/03 00:48:30;;;;;;;30.33;17.98;;;;;;;;;;5114582;28;20193;-63
2021/03/03 00:50:56;;;;;;;25.17;17.92;;;;;;;;;;5113466;28;20208;-63
2021/03/03 00:53:24;;;;;;;24.30;18.13;;;;;;;;;;5114064;28;20252;-62
2021/03/03 00:55:51;;;;;;;30.85;19.80;;;;;;;;;;5113755;28;20334;-63
2021/03/03 00:58:18;;;;;;;27.25;19.35;;;;;;;;;;5114057;28;20551;-62
2021/03/03 01:00:44;;;;;;;23.50;18.10;;;;;;;;;;5114066;28;20225;-63
2021/03/03 01:03:11;;;;;;;26.15;18.60;;;;;;;;;;5114779;28;20646;-63
2021/03/03 01:05:40;;;;;;;27.10;17.48;;;;;;;;;;5113434;28;20233;-63
2021/03/03 01:08:07;;;;;;;27.20;18.08;;;;;;;;;;5113824;28;20225;-63
2021/03/03 01:10:34;;;;;;;26.98;18.20;;;;;;;;;;5113928;28;20200;-63
2021/03/03 01:13:01;;;;;;;25.70;17.58;;;;;;;;;;5113818;28;20662;-62
2021/03/03 01:15:28;;;;;;;22.17;16.48;;;;;;;;;;5113553;28;20646;-63
2021/03/03 01:18:00;;;;;;;23.25;17.77;;;;;;;;;;5114646;28;20275;-63
2021/03/03 01:20:26;;;;;;;24.45;17.85;;;;;;;;;;5113940;28;20527;-63
2021/03/03 01:22:53;;;;;;;26.02;17.73;;;;;;;;;;5113891;28;20562;-63
2021/03/03 01:25:20;;;;;;;22.63;16.75;;;;;;;;;;5113790;28;20196;-63
2021/03/03 01:27:47;;;;;;;28.40;17.23;;;;;;;;;;5113671;28;20312;-63
2021/03/03 01:30:15;;;;;;;22.65;16.70;;;;;;;;;;5113739;28;20300;-63
2021/03/03 01:32:42;;;;;;;24.40;16.20;;;;;;;;;;5113732;28;20296;-63
2021/03/03 01:35:09;;;;;;;26.85;18.27;;;;;;;;;;5113652;28;20330;-63
2021/03/03 01:37:36;;;;;;;24.70;18.13;;;;;;;;;;5113693;28;20292;-63
2021/03/03 01:40:03;;;;;;;23.25;16.92;;;;;;;;;;5113661;28;20290;-63
2021/03/03 01:42:30;;;;;;;25.83;17.55;;;;;;;;;;5113628;28;20658;-63
2021/03/03 01:44:57;;;;;;;23.65;16.95;;;;;;;;;;5114304;28;20197;-63
2021/03/03 01:47:24;;;;;;;25.63;16.42;;;;;;;;;;5113407;28;20317;-63
2021/03/03 01:49:51;;;;;;;22.25;17.73;;;;;;;;;;5113529;28;20197;-63
2021/03/03 01:52:18;;;;;;;26.73;18.58;;;;;;;;;;5113508;28;20225;-62
2021/03/03 01:54:45;;;;;;;25.85;16.80;;;;;;;;;;5113539;28;20279;-63
2021/03/03 01:57:12;;;;;;;23.02;17.63;;;;;;;;;;5113911;28;20619;-63
2021/03/03 01:59:39;;;;;;;24.10;16.90;;;;;;;;;;5113734;28;20235;-62
2021/03/03 02:02:07;;;;;;;26.67;16.70;;;;;;;;;;5114727;28;20290;-63
2021/03/03 02:04:34;;;;;;;26.83;17.05;;;;;;;;;;5117061;28;20197;-62
2021/03/03 02:07:03;;;;;;;19.02;15.80;;;;;;;;;;5117207;28;20299;-63
2021/03/03 02:09:33;;;;;;;25.25;17.20;;;;;;;;;;5117179;28;20726;-63
2021/03/03 02:12:02;;;;;;;20.40;16.55;;;;;;;;;;5116747;28;20606;-64
2021/03/03 02:14:29;;;;;;;22.00;15.82;;;;;;;;;;5117567;28;20231;-63
2021/03/03 02:16:56;;;;;;;26.17;16.92;;;;;;;;;;5116797;28;20196;-62
2021/03/03 02:19:26;;;;;;;25.55;16.63;;;;;;;;;;5116745;28;20196;-63
2021/03/03 02:21:55;;;;;;;28.45;16.70;;;;;;;;;;5117470;28;20235;-63
2021/03/03 02:24:23;;;;;;;25.58;17.55;;;;;;;;;;5117042;28;20337;-63
2021/03/03 02:26:52;;;;;;;23.10;17.02;;;;;;;;;;5116371;28;20212;-63
2021/03/03 02:29:20;;;;;;;23.63;15.35;;;;;;;;;;5116425;28;20280;-63
2021/03/03 02:31:50;;;;;;;22.88;16.08;;;;;;;;;;5116694;28;20201;-63
2021/03/03 02:34:18;;;;;;;26.65;16.73;;;;;;;;;;5116665;28;20558;-62
2021/03/03 02:36:45;;;;;;;23.25;15.90;;;;;;;;;;5116445;28;20292;-63
2021/03/03 02:39:12;;;;;;;27.98;16.50;;;;;;;;;;5117100;28;20265;-62
2021/03/03 02:41:41;;;;;;;25.48;16.70;;;;;;;;;;5116236;28;20193;-62
2021/03/03 02:44:10;;;;;;;26.15;17.08;;;;;;;;;;5116169;28;20195;-63
2021/03/03 02:46:36;;;;;;;22.05;15.93;;;;;;;;;;5117167;28;20255;-62
2021/03/03 02:49:04;;;;;;;22.38;15.57;;;;;;;;;;5116037;28;20661;-62
2021/03/03 02:51:30;;;;;;;23.52;16.90;;;;;;;;;;5116281;28;20189;-63
2021/03/03 02:53:57;;;;;;;29.65;16.33;;;;;;;;;;5116652;28;20197;-63
2021/03/03 02:56:25;;;;;;;23.77;16.15;;;;;;;;;;5116278;28;20199;-63
2021/03/03 02:58:52;;;;;;;23.58;15.57;;;;;;;;;;5116244;28;20222;-63
2021/03/03 03:01:21;;;;;;;20.50;15.73;;;;;;;;;;5115823;28;20650;-63
2021/03/03 03:03:51;;;;;;;19.15;15.85;;;;;;;;;;5115802;28;20194;-63
2021/03/03 03:06:19;;;;;;;31.15;18.25;;;;;;;;;;5115878;28;20228;-63
2021/03/03 03:08:47;;;;;;;21.42;15.80;;;;;;;;;;5116043;28;20244;-62
2021/03/03 03:11:16;;;;;;;20.52;16.52;;;;;;;;;;5115610;28;20193;-63
2021/03/03 03:13:44;;;;;;;26.02;14.55;;;;;;;;;;5115621;28;20193;-64
2021/03/03 03:16:11;;;;;;;19.02;15.68;;;;;;;;;;5115865;28;20197;-63
2021/03/03 03:18:42;;;;;;;23.33;16.35;;;;;;;;;;5116596;28;20193;-63
2021/03/03 03:21:09;;;;;;;25.00;16.42;;;;;;;;;;5115488;28;20256;-63
2021/03/03 03:23:36;;;;;;;23.80;16.15;;;;;;;;;;5115449;28;20229;-63
2021/03/03 03:26:05;;;;;;;23.63;14.93;;;;;;;;;;5115854;28;20283;-63
2021/03/03 03:28:32;;;;;;;19.02;15.50;;;;;;;;;;5115563;28;20276;-63
2021/03/03 03:30:59;;;;;;;22.88;15.55;;;;;;;;;;5115935;28;20205;-63
2021/03/03 03:33:26;;;;;;;22.52;15.35;;;;;;;;;;5115511;28;20550;-63
2021/03/03 03:35:53;;;;;;;19.30;15.40;;;;;;;;;;5115498;28;20199;-63
2021/03/03 03:38:20;;;;;;;20.65;15.43;;;;;;;;;;5115393;28;20200;-63
2021/03/03 03:40:48;;;;;;;24.92;15.63;;;;;;;;;;5115536;28;20193;-63
2021/03/03 03:43:15;;;;;;;23.50;16.25;;;;;;;;;;5115386;28;20201;-63
2021/03/03 03:45:42;;;;;;;22.90;15.10;;;;;;;;;;5115361;28;20201;-63
2021/03/03 03:48:09;;;;;;;20.42;14.52;;;;;;;;;;5114730;28;20695;-63
2021/03/03 03:50:36;;;;;;;24.33;15.32;;;;;;;;;;5114812;28;20280;-63
2021/03/03 03:53:03;;;;;;;20.55;15.65;;;;;;;;;;5115422;28;20192;-63
2021/03/03 03:55:31;;;;;;;22.65;15.48;;;;;;;;;;5114776;28;20193;-63
2021/03/03 03:57:57;;;;;;;21.75;15.90;;;;;;;;;;5114705;28;20208;-63
2021/03/03 04:00:24;;;;;;;21.48;15.07;;;;;;;;;;5115495;28;20201;-63
2021/03/03 04:02:51;;;;;;;21.73;15.43;;;;;;;;;;5115106;28;20279;-62
2021/03/03 04:05:19;;;;;;;27.90;17.15;;;;;;;;;;5114642;28;20745;-62
2021/03/03 04:07:45;;;;;;;26.80;16.02;;;;;;;;;;5114443;28;20216;-62
2021/03/03 04:10:15;;;;;;;27.88;16.33;;;;;;;;;;5114951;28;20197;-63
2021/03/03 04:12:42;;;;;;;23.05;17.00;;;;;;;;;;5114881;28;20650;-62
2021/03/03 04:15:09;;;;;;;24.55;15.98;;;;;;;;;;5114755;28;20193;-63
2021/03/03 04:17:36;;;;;;;23.77;15.55;;;;;;;;;;5114725;28;20204;-63
2021/03/03 04:20:03;;;;;;;25.33;17.10;;;;;;;;;;5114691;28;20194;-63
2021/03/03 04:22:30;;;;;;;20.80;16.27;;;;;;;;;;5114546;28;20622;-63
2021/03/03 04:24:57;;;;;;;24.60;16.25;;;;;;;;;;5114126;28;20193;-63
2021/03/03 04:27:24;;;;;;;21.17;14.90;;;;;;;;;;5114022;28;20244;-63
2021/03/03 04:29:51;;;;;;;24.83;16.13;;;;;;;;;;5114733;28;20282;-64
2021/03/03 04:32:18;;;;;;;27.63;16.58;;;;;;;;;;5114070;28;20207;-63
2021/03/03 04:34:45;;;;;;;29.27;17.38;;;;;;;;;;5114029;28;20720;-63
2021/03/03 04:37:11;;;;;;;25.75;16.50;;;;;;;;;;5115132;28;20196;-63
2021/03/03 04:39:38;;;;;;;23.30;16.08;;;;;;;;;;5113919;28;20204;-63
2021/03/03 04:42:05;;;;;;;19.77;16.10;;;;;;;;;;5114303;28;20552;-63
2021/03/03 04:44:33;;;;;;;21.58;15.63;;;;;;;;;;5114222;28;20193;-63
2021/03/03 04:47:00;;;;;;;23.05;15.88;;;;;;;;;;5114319;28;20235;-63
2021/03/03 04:49:26;;;;;;;28.85;16.23;;;;;;;;;;5114121;28;20197;-63
2021/03/03 04:51:53;;;;;;;25.17;16.52;;;;;;;;;;5114551;28;20595;-63
2021/03/03 04:54:20;;;;;;;26.27;15.70;;;;;;;;;;5114360;28;20253;-63
2021/03/03 04:56:47;;;;;;;20.70;15.35;;;;;;;;;;5114021;28;20205;-63
2021/03/03 04:59:13;;;;;;;20.90;15.65;;;;;;;;;;5113754;28;20714;-63
2021/03/03 05:01:41;;;;;;;21.13;15.35;;;;;;;;;;5113779;28;20192;-63
2021/03/03 05:04:07;;;;;;;20.73;15.02;;;;;;;;;;5114400;28;20193;-66
2021/03/03 05:06:34;;;;;;;23.35;15.65;;;;;;;;;;5113423;28;20237;-63
2021/03/03 05:09:01;;;;;;;24.60;14.18;;;;;;;;;;5113610;28;20201;-63
2021/03/03 05:11:27;;;;;;;18.65;14.05;;;;;;;;;;5113855;28;20280;-63
2021/03/03 05:13:54;;;;;;;17.92;13.85;;;;;;;;;;5113887;28;20193;-63
2021/03/03 05:16:21;;;;;;;25.60;15.55;;;;;;;;;;5113456;28;20646;-64
2021/03/03 05:18:48;;;;;;;24.70;15.15;;;;;;;;;;5113831;28;20235;-64
2021/03/03 05:21:15;;;;;;;20.73;14.85;;;;;;;;;;5113851;28;20201;-64
2021/03/03 05:23:42;;;;;;;21.67;15.60;;;;;;;;;;5113872;28;20199;-63
2021/03/03 05:26:08;;;;;;;20.77;14.70;;;;;;;;;;5113508;28;20714;-64
2021/03/03 05:28:35;;;;;;;21.48;15.40;;;;;;;;;;5113405;28;20223;-63
2021/03/03 05:31:02;;;;;;;26.17;14.38;;;;;;;;;;5113808;28;20197;-64
2021/03/03 05:33:29;;;;;;;22.20;15.25;;;;;;;;;;5111698;28;20194;-64
2021/03/03 05:35:58;;;;;;;22.73;15.48;;;;;;;;;;5113709;28;20265;-64
2021/03/03 05:38:25;;;;;;;24.20;15.00;;;;;;;;;;5116902;28;20193;-63
2021/03/03 05:40:53;;;;;;;21.30;15.27;;;;;;;;;;5116752;28;20237;-64
2021/03/03 05:43:20;;;;;;;21.42;15.00;;;;;;;;;;5116832;28;20188;-63
2021/03/03 05:45:47;;;;;;;20.65;14.38;;;;;;;;;;5116743;28;20219;-63
2021/03/03 05:48:16;;;;;;;18.92;15.10;;;;;;;;;;5116659;28;20262;-63
2021/03/03 05:50:43;;;;;;;19.83;15.23;;;;;;;;;;5117335;28;20197;-64
2021/03/03 05:53:13;;;;;;;27.10;14.90;;;;;;;;;;5116622;28;20782;-64
2021/03/03 05:55:40;;;;;;;23.65;16.30;;;;;;;;;;5117536;28;20195;-64
2021/03/03 05:58:09;;;;;;;28.98;16.35;;;;;;;;;;5116346;28;20192;-64
2021/03/03 06:00:36;;;;;;;21.92;15.88;;;;;;;;;;5116884;28;20314;-63
2021/03/03 06:03:03;;;;;;;20.13;15.10;;;;;;;;;;5116661;28;20280;-63
2021/03/03 06:05:30;;;;;;;23.75;15.68;;;;;;;;;;5116396;28;20229;-64
2021/03/03 06:07:57;;;;;;;28.77;16.40;;;;;;;;;;5116490;28;20283;-63
2021/03/03 06:10:24;;;;;;;18.40;15.02;;;;;;;;;;5117066;28;20189;-63
2021/03/03 06:12:51;;;;;;;19.90;14.52;;;;;;;;;;5116526;28;20676;-64
2021/03/03 06:15:18;;;;;;;31.45;16.75;;;;;;;;;;5117050;28;20657;-64
2021/03/03 06:17:45;;;;;;;25.48;17.10;;;;;;;;;;5116413;28;20205;-63
2021/03/03 06:20:13;;;;;;;29.92;16.98;;;;;;;;;;5116818;28;20193;-63
2021/03/03 06:22:39;;;;;;;33.22;17.55;;;;;;;;;;5116640;28;20219;-64
2021/03/03 06:25:18;;;;;;;27.73;19.80;;;;;;;;;;5116899;28;20726;-64
2021/03/03 06:27:45;;;;;;;24.67;16.40;;;;;;;;;;5116539;28;20211;-64
2021/03/03 06:30:13;;;;;;;28.40;16.08;;;;;;;;;;5116130;28;20223;-64
2021/03/03 06:32:55;;;;;;;25.08;17.50;;;;;;;;;;5115961;28;20197;-64
2021/03/03 06:35:23;;;;;;;28.60;18.77;;;;;;;;;;5116362;28;20227;-64
2021/03/03 06:37:56;;;;;;;31.88;19.15;;;;;;;;;;5116095;28;20568;-64
2021/03/03 06:40:24;;;;;;;31.08;20.35;;;;;;;;;;5116624;28;20272;-64
2021/03/03 06:42:51;;;;;;;29.30;21.50;;;;;;;;;;5115689;28;20224;-63
2021/03/03 06:45:28;;;;;;;38.63;20.73;;;;;;;;;;5116425;28;20189;-63
2021/03/03 06:47:55;;;;;;;35.97;22.20;;;;;;;;;;5115148;28;20233;-63
2021/03/03 06:50:22;;;;;;;36.15;20.95;;;;;;;;;;5116237;28;20197;-63
2021/03/03 06:52:52;;;;;;;41.42;22.05;;;;;;;;;;5116020;28;20196;-64
2021/03/03 06:55:18;;;;;;;33.05;22.85;;;;;;;;;;5115515;28;20708;-63
2021/03/03 06:57:45;;;;;;;30.15;21.63;;;;;;;;;;5116203;28;20193;-63
2021/03/03 07:00:13;;;;;;;34.88;19.05;;;;;;;;;;5116589;28;20201;-63
2021/03/03 07:02:43;;;;;;;28.83;19.55;;;;;;;;;;5116088;28;20199;-63
2021/03/03 07:05:11;;;;;;;51.17;21.20;;;;;;;;;;5115459;28;20221;-62
2021/03/03 07:07:39;;;;;;;28.35;19.85;;;;;;;;;;5116169;28;20608;-65
2021/03/03 07:10:07;;;;;;;29.50;19.27;;;;;;;;;;5115955;28;20228;-63
2021/03/03 07:12:34;;;;;;;28.40;18.95;;;;;;;;;;5115996;28;20226;-63
2021/03/03 07:15:02;;;;;;;33.13;18.73;;;;;;;;;;5115827;28;20272;-62
2021/03/03 07:17:33;;;;;;;37.13;18.23;;;;;;;;;;5115478;28;20296;-63
2021/03/03 07:20:00;;;;;;;30.38;18.17;;;;;;;;;;5115478;28;20631;-63
2021/03/03 07:22:29;;;;;;;37.90;21.45;;;;;;;;;;5115655;28;20238;-63
2021/03/03 07:24:57;;;;;;;26.88;17.60;;;;;;;;;;5115822;28;20201;-63
2021/03/03 07:27:24;;;;;;;23.90;16.48;;;;;;;;;;5115936;28;20582;-63
2021/03/03 07:29:51;;;;;;;26.15;16.15;;;;;;;;;;5115700;28;20280;-63
2021/03/03 07:32:18;;;;;;;27.20;16.20;;;;;;;;;;5115098;28;20642;-63
2021/03/03 07:34:50;;;;;;;26.00;15.50;;;;;;;;;;5115613;28;20229;-64
2021/03/03 07:37:17;;;;;;;23.65;15.85;;;;;;;;;;5115016;28;20208;-63
2021/03/03 07:39:48;;;;;;;26.40;15.57;;;;;;;;;;5114966;28;20619;-63
2021/03/03 07:42:16;;;;;;;22.63;14.93;;;;;;;;;;5114934;28;20185;-64
2021/03/03 07:44:44;;;;;;;24.60;16.05;;;;;;;;;;5115663;28;20198;-62
2021/03/03 07:47:12;;;;;;;22.73;14.65;;;;;;;;;;5114689;28;20225;-63
2021/03/03 07:49:38;;;;;;;24.48;14.45;;;;;;;;;;5115067;28;20607;-63
2021/03/03 07:52:07;;;;;;;21.20;15.45;;;;;;;;;;5115421;28;20195;-63
2021/03/03 07:54:34;;;;;;;27.73;17.10;;;;;;;;;;5115103;28;20194;-63
2021/03/03 07:57:03;;;;;;;35.03;16.88;;;;;;;;;;5115448;28;20197;-63
2021/03/03 07:59:30;;;;;;;27.13;17.33;;;;;;;;;;5114137;28;20609;-63
2021/03/03 08:01:57;;;;;;;27.35;15.60;;;;;;;;;;5114922;28;20718;-63
2021/03/03 08:04:36;;;;;;;35.75;17.08;;;;;;;;;;5114507;28;20288;-63
2021/03/03 08:07:17;;;;;;;26.60;14.85;;;;;;;;;;5114620;28;20698;-63
2021/03/03 08:10:03;;;;;;;27.40;16.20;;;;;;;;;;5114993;28;20193;-63
2021/03/03 08:12:29;;;;;;;31.63;16.77;;;;;;;;;;5115522;28;20247;-63
2021/03/03 08:14:56;;;;;;;21.70;15.95;;;;;;;;;;5115058;28;20190;-63
2021/03/03 08:17:26;;;;;;;28.40;16.08;;;;;;;;;;5114780;28;20219;-64
2021/03/03 08:19:56;;;;;;;35.60;16.67;;;;;;;;;;5114742;28;20195;-63
2021/03/03 08:22:48;;;;;;;30.35;15.70;;;;;;;;;;5114828;28;20197;-63
2021/03/03 08:25:30;;;;;;;29.30;16.27;;;;;;;;;;5114520;28;20201;-62
2021/03/03 08:27:56;;;;;;;41.08;16.52;;;;;;;;;;5113705;28;20252;-62
2021/03/03 08:30:24;;;;;;;26.90;16.42;;;;;;;;;;5114507;28;20552;-62
2021/03/03 08:32:50;;;;;;;34.03;16.08;;;;;;;;;;5114207;28;20284;-63
2021/03/03 08:35:37;;;;;;;37.78;17.13;;;;;;;;;;5114483;28;20286;-63
2021/03/03 08:38:16;;;;;;;35.40;15.75;;;;;;;;;;5114321;28;20192;-63
2021/03/03 08:40:43;;;;;;;29.30;15.80;;;;;;;;;;5114489;28;20213;-63
2021/03/03 08:43:34;;;;;;;25.48;16.08;;;;;;;;;;5114188;28;20277;-63
2021/03/03 08:46:01;;;;;;;35.25;17.10;;;;;;;;;;5113892;28;20192;-63
2021/03/03 08:48:27;;;;;;;28.58;15.55;;;;;;;;;;5114628;28;20554;-63
2021/03/03 08:50:54;;;;;;;33.05;16.65;;;;;;;;;;5114042;28;20270;-63
2021/03/03 08:53:26;;;;;;;33.97;19.48;;;;;;;;;;5114046;28;20644;-63
2021/03/03 08:55:53;;;;;;;29.00;18.42;;;;;;;;;;5114228;28;20242;-63
2021/03/03 08:58:35;;;;;;;28.48;20.15;;;;;;;;;;5113926;28;20195;-63
2021/03/03 09:01:02;;;;;;;31.98;19.17;;;;;;;;;;5111564;28;20277;-63
2021/03/03 09:03:29;;;;;;;29.63;18.42;;;;;;;;;;5113633;28;20285;-63
2021/03/03 09:05:56;;;;;;;29.52;18.35;;;;;;;;;;5113853;28;20684;-64
2021/03/03 09:08:23;;;;;;;35.65;18.77;;;;;;;;;;5113865;28;20301;-63
2021/03/03 09:10:51;;;;;;;26.10;16.73;;;;;;;;;;5116062;28;20332;-64
2021/03/03 09:13:22;;;;;;;32.70;17.25;;;;;;;;;;5120489;28;20716;-64
2021/03/03 09:16:02;;;;;;;32.35;15.77;;;;;;;;;;5120598;28;20335;-64
2021/03/03 09:18:29;;;;;;;26.70;16.50;;;;;;;;;;5120945;28;20251;-64
2021/03/03 09:21:08;;;;;;;31.25;15.90;;;;;;;;;;5120543;28;20195;-64
2021/03/03 09:23:35;;;;;;;29.98;15.55;;;;;;;;;;5121103;28;20261;-63
2021/03/03 09:26:03;;;;;;;21.50;14.82;;;;;;;;;;5120547;28;20277;-63
2021/03/03 09:28:39;;;;;;;26.92;17.10;;;;;;;;;;5121087;28;20212;-63
2021/03/03 09:31:06;;;;;;;27.23;15.30;;;;;;;;;;5120550;28;20198;-63
2021/03/03 09:33:33;;;;;;;26.02;14.95;;;;;;;;;;5120525;28;20281;-63
2021/03/03 09:36:00;;;;;;;24.35;14.15;;;;;;;;;;5120476;28;20198;-63
2021/03/03 09:38:29;;;;;;;29.00;13.82;;;;;;;;;;5120162;28;20656;-64
2021/03/03 09:40:55;;;;;;;23.25;14.82;;;;;;;;;;5121157;28;20191;-64
2021/03/03 09:43:23;;;;;;;23.42;13.75;;;;;;;;;;5120593;28;20285;-64
2021/03/03 09:45:55;;;;;;;20.13;14.40;;;;;;;;;;5120380;28;20195;-65
2021/03/03 09:48:26;;;;;;;29.35;15.27;;;;;;;;;;5120294;28;20209;-64
2021/03/03 09:50:53;;;;;;;27.05;15.65;;;;;;;;;;5120067;28;20182;-63
2021/03/03 09:53:20;;;;;;;24.20;14.77;;;;;;;;;;5120274;28;20235;-64
2021/03/03 09:55:47;;;;;;;24.83;14.68;;;;;;;;;;5119888;28;20432;-63
2021/03/03 09:58:14;;;;;;;23.33;15.52;;;;;;;;;;5120861;28;20343;-63
2021/03/03 10:00:42;;;;;;;27.75;14.05;;;;;;;;;;5120330;28;20241;-64
2021/03/03 10:03:11;;;;;;;29.17;14.70;;;;;;;;;;5120186;28;20235;-63
2021/03/03 10:05:38;;;;;;;27.90;16.27;;;;;;;;;;5120340;28;20223;-63
2021/03/03 10:08:07;;;;;;;23.63;12.90;;;;;;;;;;5120111;28;20244;-64
2021/03/03 10:10:34;;;;;;;26.30;16.70;;;;;;;;;;5119759;28;20190;-64
2021/03/03 10:13:01;;;;;;;25.40;16.33;;;;;;;;;;5120127;28;20440;-64
2021/03/03 10:15:31;;;;;;;26.67;15.35;;;;;;;;;;5120044;28;20191;-64
2021/03/03 10:17:59;;;;;;;31.90;16.60;;;;;;;;;;5120325;28;20637;-63
2021/03/03 10:20:33;;;;;;;23.85;14.82;;;;;;;;;;5119775;28;20212;-63
2021/03/03 10:23:05;;;;;;;31.70;17.27;;;;;;;;;;5117271;28;20237;-63
2021/03/03 10:25:32;;;;;;;25.63;16.30;;;;;;;;;;5117336;28;20461;-63
2021/03/03 10:28:04;;;;;;;25.73;16.60;;;;;;;;;;5116376;28;20478;-64
2021/03/03 10:30:32;;;;;;;33.05;16.42;;;;;;;;;;5116747;28;20283;-64
2021/03/03 10:33:00;;;;;;;30.63;16.67;;;;;;;;;;5116609;28;20197;-63
2021/03/03 10:35:29;;;;;;;27.73;16.10;;;;;;;;;;5116291;28;20447;-65
2021/03/03 10:38:09;;;;;;;22.23;15.20;;;;;;;;;;5116586;28;20446;-64
2021/03/03 10:40:39;;;;;;;24.00;16.70;;;;;;;;;;5116566;28;20995;-63
2021/03/03 10:43:09;;;;;;;34.10;15.63;;;;;;;;;;5116483;28;20501;-64
2021/03/03 10:45:36;;;;;;;25.27;16.52;;;;;;;;;;5117049;28;20281;-63
2021/03/03 10:48:04;;;;;;;30.38;17.17;;;;;;;;;;5116825;28;20636;-64
2021/03/03 10:50:31;;;;;;;28.50;18.00;;;;;;;;;;5116329;28;20290;-63
2021/03/03 10:52:59;;;;;;;26.00;16.57;;;;;;;;;;5116318;28;21021;-64
2021/03/03 10:55:26;;;;;;;28.90;17.57;;;;;;;;;;5116259;28;20474;-64
2021/03/03 10:58:00;;;;;;;34.60;19.17;;;;;;;;;;5115912;28;20448;-63
2021/03/03 11:00:27;;;;;;;32.30;20.10;;;;;;;;;;5116086;28;20578;-64
2021/03/03 11:03:01;;;;;;;30.00;18.43;;;;;;;;;;5115664;28;20525;-64
2021/03/03 11:05:29;;;;;;;32.03;18.93;;;;;;;;;;5115825;28;20545;-63
2021/03/03 11:07:56;;;;;;;42.20;19.63;;;;;;;;;;5115484;28;20482;-65
2021/03/03 11:10:23;;;;;;;27.87;17.50;;;;;;;;;;5115645;28;20438;-64
2021/03/03 11:12:49;;;;;;;34.63;18.23;;;;;;;;;;5115382;28;20500;-63
2021/03/03 11:15:22;;;;;;;42.03;22.07;;;;;;;;;;5115464;28;20442;-64
2021/03/03 11:17:49;;;;;;;33.90;19.50;;;;;;;;;;5115947;28;20548;-64
2021/03/03 11:20:16;;;;;;;32.53;19.43;;;;;;;;;;5115764;28;20443;-64
2021/03/03 11:22:44;;;;;;;36.83;19.70;;;;;;;;;;5115694;28;20443;-63
2021/03/03 11:25:11;;;;;;;34.40;20.73;;;;;;;;;;5115727;28;20534;-64
2021/03/03 11:27:38;;;;;;;33.07;19.27;;;;;;;;;;5115039;28;21025;-64
2021/03/03 11:30:06;;;;;;;30.87;19.43;;;;;;;;;;5115017;28;20983;-64
2021/03/03 11:32:32;;;;;;;35.03;22.27;;;;;;;;;;5115355;28;20440;-63
2021/03/03 11:34:59;;;;;;;36.20;22.30;;;;;;;;;;5114825;28;20928;-63
2021/03/03 11:37:26;;;;;;;38.43;23.80;;;;;;;;;;5115309;28;20487;-64
2021/03/03 11:39:54;;;;;;;40.07;24.00;;;;;;;;;;5114900;28;20458;-63
2021/03/03 11:42:20;;;;;;;34.97;23.77;;;;;;;;;;5115252;28;20500;-64
2021/03/03 11:44:52;;;;;;;36.73;23.77;;;;;;;;;;5114787;28;20450;-64
2021/03/03 11:47:19;;;;;;;36.30;23.40;;;;;;;;;;5114972;28;20507;-64
2021/03/03 11:49:45;;;;;;;34.33;22.23;;;;;;;;;;5115075;28;20806;-63
2021/03/03 11:52:12;;;;;;;45.70;24.77;;;;;;;;;;5115257;28;20534;-64
2021/03/03 11:54:39;;;;;;;42.00;25.37;;;;;;;;;;5115130;28;20468;-64
2021/03/03 11:57:07;;;;;;;41.03;23.30;;;;;;;;;;5114835;28;20517;-64
2021/03/03 11:59:33;;;;;;;40.23;23.90;;;;;;;;;;5114497;28;20999;-64
2021/03/03 12:02:00;;;;;;;56.07;26.63;;;;;;;;;;5114458;28;20481;-63
2021/03/03 12:04:27;;;;;;;39.30;25.27;;;;;;;;;;5114420;28;20472;-64
2021/03/03 12:06:54;;;;;;;43.80;28.50;;;;;;;;;;5114485;28;20553;-63
2021/03/03 12:09:20;;;;;;;39.93;27.00;;;;;;;;;;5114345;28;20470;-64
2021/03/03 12:11:47;;;;;;;40.63;26.93;;;;;;;;;;5114898;28;20529;-64
2021/03/03 12:14:15;;;;;;;48.83;26.57;;;;;;;;;;5114570;28;20438;-63
2021/03/03 12:16:41;;;;;;;43.93;28.37;;;;;;;;;;5114200;28;20438;-63
2021/03/03 12:19:08;;;;;;;40.30;26.20;;;;;;;;;;5114522;28;20478;-63
2021/03/03 12:21:44;;;;;;;40.60;25.53;;;;;;;;;;5114450;28;20445;-64
2021/03/03 12:24:11;;;;;;;41.53;26.93;;;;;;;;;;5114516;28;20430;-64
2021/03/03 12:26:37;;;;;;;47.43;28.77;;;;;;;;;;5114369;28;20463;-64
2021/03/03 12:29:04;;;;;;;46.30;29.90;;;;;;;;;;5113848;28;20565;-64
2021/03/03 12:31:32;;;;;;;41.90;31.63;;;;;;;;;;5114690;28;20515;-64
2021/03/03 12:33:59;;;;;;;56.17;33.83;;;;;;;;;;5114190;28;20617;-63
2021/03/03 12:36:26;;;;;;;53.33;34.17;;;;;;;;;;5114550;28;20443;-64
2021/03/03 12:38:52;;;;;;;56.17;35.67;;;;;;;;;;5113908;28;20456;-63
2021/03/03 12:41:19;;;;;;;54.43;33.00;;;;;;;;;;5113738;28;20437;-63
2021/03/03 12:43:46;;;;;;;62.97;36.80;;;;;;;;;;5114086;28;20529;-64
2021/03/03 12:46:13;;;;;;;60.80;36.90;;;;;;;;;;5113532;28;20504;-64
2021/03/03 12:48:40;;;;;;;61.50;36.40;;;;;;;;;;5114390;28;20568;-63
2021/03/03 12:51:07;;;;;;;49.80;35.03;;;;;;;;;;5113724;28;20445;-64
2021/03/03 12:53:34;;;;;;;49.77;35.20;;;;;;;;;;5114343;28;20538;-64
2021/03/03 12:56:00;;;;;;;56.20;36.93;;;;;;;;;;5113957;28;20870;-64
2021/03/03 12:58:27;;;;;;;54.63;36.70;;;;;;;;;;5113827;28;21033;-64
2021/03/03 13:00:54;;;;;;;50.53;34.30;;;;;;;;;;5113570;28;20928;-64
2021/03/03 13:03:21;;;;;;;59.13;33.13;;;;;;;;;;5113845;28;20442;-64
2021/03/03 13:05:48;;;;;;;60.13;39.57;;;;;;;;;;5113535;28;20462;-64
2021/03/03 13:08:15;;;;;;;55.17;37.43;;;;;;;;;;5113932;28;20564;-64
2021/03/03 13:10:42;;;;;;;59.00;38.97;;;;;;;;;;5113847;28;20464;-64
2021/03/03 13:13:08;;;;;;;61.33;38.50;;;;;;;;;;5113524;28;20438;-64
2021/03/03 13:15:35;;;;;;;57.70;38.10;;;;;;;;;;5114461;28;20518;-64
2021/03/03 13:18:02;;;;;;;65.00;43.00;;;;;;;;;;5113709;28;20977;-63
2021/03/03 13:20:28;;;;;;;66.90;39.77;;;;;;;;;;5113415;28;20443;-64
2021/03/03 13:22:57;;;;;;;54.33;37.50;;;;;;;;;;5113921;28;20529;-64
2021/03/03 13:25:23;;;;;;;68.00;43.20;;;;;;;;;;5113536;28;20928;-64
2021/03/03 13:27:50;;;;;;;55.40;41.57;;;;;;;;;;5113317;28;20565;-64
2021/03/03 13:30:19;;;;;;;74.67;41.53;;;;;;;;;;5113656;28;20470;-64
2021/03/03 13:32:45;;;;;;;63.33;42.37;;;;;;;;;;5114031;28;20784;-64
2021/03/03 13:35:18;;;;;;;56.53;37.23;;;;;;;;;;5113223;28;20435;-64
2021/03/03 13:37:45;;;;;;;60.50;40.17;;;;;;;;;;5113524;28;20514;-64
2021/03/03 13:40:13;;;;;;;61.47;41.57;;;;;;;;;;5113618;28;20443;-64
2021/03/03 13:42:40;;;;;;;62.80;40.20;;;;;;;;;;5113451;28;20438;-64
2021/03/03 13:45:08;;;;;;;64.50;38.97;;;;;;;;;;5113454;28;20538;-64
2021/03/03 13:47:35;;;;;;;67.33;39.67;;;;;;;;;;5113025;28;20521;-64
2021/03/03 13:50:01;;;;;;;57.63;40.17;;;;;;;;;;5113030;28;20529;-63
2021/03/03 13:52:28;;;;;;;63.40;39.67;;;;;;;;;;5113707;28;20526;-64
2021/03/03 13:54:55;;;;;;;60.53;37.40;;;;;;;;;;5113409;28;20836;-65
2021/03/03 13:57:22;;;;;;;64.97;41.00;;;;;;;;;;5113342;28;20438;-64
2021/03/03 13:59:49;;;;;;;55.23;38.40;;;;;;;;;;5117199;28;20473;-64
2021/03/03 14:02:16;;;;;;;67.00;39.20;;;;;;;;;;5116064;28;20442;-64
2021/03/03 14:04:42;;;;;;;58.87;37.80;;;;;;;;;;5116360;28;20591;-64
2021/03/03 14:07:09;;;;;;;52.60;38.63;;;;;;;;;;5116777;28;20450;-64
2021/03/03 14:09:36;;;;;;;56.93;38.17;;;;;;;;;;5116623;28;20875;-64
2021/03/03 14:12:03;;;;;;;59.30;39.13;;;;;;;;;;5116444;28;20431;-63
2021/03/03 14:14:30;;;;;;;63.80;39.47;;;;;;;;;;5116299;28;20493;-64
2021/03/03 14:16:57;;;;;;;60.03;40.23;;;;;;;;;;5116852;28;20470;-63
2021/03/03 14:19:24;;;;;;;61.47;41.53;;;;;;;;;;5116704;28;20480;-64
2021/03/03 14:21:51;;;;;;;60.73;42.00;;;;;;;;;;5116606;28;20474;-63